Time;durP1;ratioP1;P1;durP2;ratioP2;P2;SDS_P1;SDS_P2;PMS_P1;PMS_P2;Temp;Humidity;BMP_temperature;BMP_pressure;BME280_temperature;BME280_humidity;BME280_pressure;Samples;Min_cycle;Max_cycle;Signal;HPM_P1;HPM_P2
2023/03/05 00:01:13;;;;;;;;;;;2.60;99.90;;;;;;5024280;28;20246;-90
2023/03/05 00:03:41;;;;;;;;;;;2.60;99.90;;;;;;5035106;28;19924;-89
2023/03/05 00:06:18;;;;;;;;;;;2.50;99.90;;;;;;5074724;28;20041;-89
2023/03/05 00:08:44;;;;;;;;;;;2.50;99.90;;;;;;5080630;28;20019;-89
2023/03/05 00:11:19;;;;;;;;;;;2.50;99.90;;;;;;5027748;28;20471;-89
2023/03/05 00:13:47;;;;;;;;;;;2.50;99.90;;;;;;5034088;28;19982;-89
2023/03/05 00:16:26;;;;;;;;;;;;;;;;;;;;;
2023/03/05 00:18:55;;;;;;;;;;;2.50;99.90;;;;;;5068157;28;19932;-89
2023/03/05 00:21:46;;;;;;;;;;;2.50;99.90;;;;;;5087443;28;19929;-89
2023/03/05 00:24:16;;;;;;;;;;;2.50;99.90;;;;;;5050158;28;19932;-89
2023/03/05 00:26:52;;;;;;;;;;;2.50;99.90;;;;;;5088426;28;19925;-90
2023/03/05 00:29:28;;;;;;;;;;;2.50;99.90;;;;;;5053471;28;20300;-89
2023/03/05 00:31:54;;;;;;;;;;;2.40;99.90;;;;;;5059495;28;19925;-90
2023/03/05 00:34:28;;;;;;;;;;;2.40;99.90;;;;;;5053241;28;19925;-90
2023/03/05 00:36:56;;;;;;;;;;;2.40;99.90;;;;;;5038167;28;20011;-89
2023/03/05 00:39:30;;;;;;;;;;;2.40;99.90;;;;;;5049508;28;20004;-90
2023/03/05 00:41:59;;;;;;;;;;;2.40;99.90;;;;;;5038007;28;20380;-89
2023/03/05 00:44:35;;;;;;;;;;;;;;;;;;;;;
2023/03/05 00:47:03;;;;;;;;;;;2.40;99.90;;;;;;5087327;28;19931;-89
2023/03/05 00:49:36;;;;;;;;;;;2.40;99.90;;;;;;5068344;28;19925;-90
2023/03/05 00:52:07;;;;;;;;;;;2.40;99.90;;;;;;5071620;28;20023;-89
2023/03/05 00:54:33;;;;;;;;;;;2.40;99.90;;;;;;5036160;28;20372;-89
2023/03/05 00:57:09;;;;;;;;;;;2.40;99.90;;;;;;5071084;28;20003;-89
2023/03/05 00:59:40;;;;;;;;;;;2.40;99.90;;;;;;5023388;28;19925;-89
2023/03/05 01:02:08;;;;;;;;;;;2.40;99.90;;;;;;5079051;28;19952;-89
2023/03/05 01:04:44;;;;;;;;;;;;;;;;;;;;;
2023/03/05 01:07:10;;;;;;;;;;;2.40;99.90;;;;;;5075134;28;19932;-89
2023/03/05 01:09:38;;;;;;;;;;;2.40;99.90;;;;;;5053777;28;19929;-88
2023/03/05 01:12:12;;;;;;;;;;;2.40;99.90;;;;;;5036995;28;19931;-89
2023/03/05 01:14:38;;;;;;;;;;;2.40;99.90;;;;;;5086697;28;19931;-89
2023/03/05 01:17:03;;;;;;;;;;;2.40;99.90;;;;;;5046953;28;19925;-90
2023/03/05 01:19:32;;;;;;;;;;;2.40;99.90;;;;;;5037275;28;20055;-90
2023/03/05 01:21:58;;;;;;;;;;;2.40;99.90;;;;;;5043307;28;19925;-90
2023/03/05 01:24:24;;;;;;;;;;;2.30;99.90;;;;;;5040623;28;20284;-90
2023/03/05 01:26:55;;;;;;;;;;;2.30;99.90;;;;;;5036824;28;20023;-88
2023/03/05 01:29:21;;;;;;;;;;;2.30;99.90;;;;;;5081593;28;20367;-90
2023/03/05 01:31:47;;;;;;;;;;;2.20;99.90;;;;;;5031383;28;19929;-89
2023/03/05 01:34:16;;;;;;;;;;;2.10;99.90;;;;;;5034129;28;19964;-89
2023/03/05 01:36:48;;;;;;;;;;;2.10;99.90;;;;;;5024978;28;20285;-89
2023/03/05 01:42:20;;;;;;;;;;;1.90;99.90;;;;;;5053206;28;19929;-89
2023/03/05 01:45:08;;;;;;;;;;;1.80;99.90;;;;;;5020193;28;19940;-88
2023/03/05 01:47:37;;;;;;;;;;;1.80;99.90;;;;;;5071858;28;19925;-89
2023/03/05 01:50:11;;;;;;;;;;;1.70;99.90;;;;;;5069562;28;20341;-89
2023/03/05 01:52:52;;;;;;;;;;;1.80;99.90;;;;;;5063191;28;19925;-90
2023/03/05 01:55:21;;;;;;;;;;;1.70;99.90;;;;;;5036374;28;19983;-90
2023/03/05 01:57:57;;;;;;;;;;;1.80;99.90;;;;;;5035820;28;19963;-89
2023/03/05 02:00:45;;;;;;;;;;;1.70;99.90;;;;;;5079914;28;19924;-89
2023/03/05 02:03:13;;;;;;;;;;;1.70;99.90;;;;;;5067130;28;19924;-89
2023/03/05 02:05:43;;;;;;;;;;;1.70;99.90;;;;;;5054608;28;20364;-89
2023/03/05 02:08:13;;;;;;;;;;;1.70;99.90;;;;;;5086579;28;20305;-89
2023/03/05 02:10:45;;;;;;;;;;;1.70;99.90;;;;;;5089967;28;19983;-89
2023/03/05 02:13:15;;;;;;;;;;;1.70;99.90;;;;;;5090122;28;19996;-92
2023/03/05 02:15:50;;;;;;;;;;;1.70;99.90;;;;;;5073582;28;19935;-90
2023/03/05 02:18:34;;;;;;;;;;;1.60;99.90;;;;;;5073059;28;19929;-91
2023/03/05 02:21:11;;;;;;;;;;;1.60;99.90;;;;;;5058433;28;19920;-90
2023/03/05 02:23:45;;;;;;;;;;;1.60;99.90;;;;;;5057776;28;19979;-89
2023/03/05 02:26:20;;;;;;;;;;;1.50;99.90;;;;;;5070706;28;19981;-89
2023/03/05 02:28:57;;;;;;;;;;;1.50;99.90;;;;;;5095481;28;19928;-90
2023/03/05 02:31:26;;;;;;;;;;;-0.10;99.90;;;;;;5063438;28;19975;-89
2023/03/05 02:34:05;;;;;;;;;;;1.40;99.90;;;;;;5073092;28;19984;-90
2023/03/05 02:36:36;;;;;;;;;;;1.40;99.90;;;;;;5053242;28;19987;-88
2023/03/05 02:39:09;;;;;;;;;;;1.40;99.90;;;;;;5085327;28;19955;-89
2023/03/05 02:41:35;;;;;;;;;;;1.40;99.90;;;;;;5053025;28;19937;-90
2023/03/05 02:44:12;;;;;;;;;;;1.40;99.90;;;;;;5048869;28;20032;-89
2023/03/05 02:46:40;;;;;;;;;;;1.40;99.90;;;;;;5035988;28;19966;-89
2023/03/05 02:49:11;;;;;;;;;;;1.40;99.90;;;;;;5052517;28;19929;-89
2023/03/05 02:51:39;;;;;;;;;;;1.50;99.90;;;;;;5052607;28;19928;-89
2023/03/05 02:54:12;;;;;;;;;;;1.50;99.90;;;;;;5052526;28;20361;-90
2023/03/05 02:56:48;;;;;;;;;;;1.60;99.90;;;;;;5033851;28;19925;-89
2023/03/05 02:59:16;;;;;;;;;;;1.60;99.90;;;;;;5049832;28;20017;-88
2023/03/05 03:01:44;;;;;;;;;;;1.60;99.90;;;;;;5059122;28;19925;-89
2023/03/05 03:04:10;;;;;;;;;;;1.60;99.90;;;;;;5045546;28;19925;-89
2023/03/05 03:06:38;;;;;;;;;;;2.60;99.90;;;;;;5061254;28;20312;-90
2023/03/05 03:09:06;;;;;;;;;;;1.60;99.90;;;;;;5026855;28;19933;-89
2023/03/05 03:11:31;;;;;;;;;;;1.50;99.90;;;;;;5051694;28;19931;-89
2023/03/05 03:13:58;;;;;;;;;;;1.50;99.90;;;;;;5065712;28;20016;-91
2023/03/05 03:16:28;;;;;;;;;;;1.60;99.90;;;;;;5040569;28;19924;-89
2023/03/05 03:19:00;;;;;;;;;;;1.60;99.90;;;;;;5056989;28;19929;-90
2023/03/05 03:21:31;;;;;;;;;;;1.60;99.90;;;;;;5032064;28;19964;-90
2023/03/05 03:23:59;;;;;;;;;;;1.20;99.90;;;;;;5067605;28;19990;-90
2023/03/05 03:26:30;;;;;;;;;;;1.60;99.90;;;;;;5061128;28;20353;-88
2023/03/05 03:28:58;;;;;;;;;;;1.60;99.90;;;;;;5082665;28;19925;-89
2023/03/05 03:31:26;;;;;;;;;;;1.60;99.90;;;;;;5079959;28;19924;-89
2023/03/05 03:33:55;;;;;;;;;;;1.50;99.90;;;;;;5035294;28;19976;-89
2023/03/05 03:36:23;;;;;;;;;;;0.70;99.90;;;;;;5034855;28;19925;-89
2023/03/05 03:38:52;;;;;;;;;;;1.40;99.90;;;;;;5083995;28;20023;-89
2023/03/05 03:41:30;;;;;;;;;;;;;;;;;;;;;
2023/03/05 03:44:12;;;;;;;;;;;;;;;;;;;;;
2023/03/05 03:46:38;;;;;;;;;;;1.30;99.90;;;;;;5085002;28;19933;-89
2023/03/05 03:49:27;;;;;;;;;;;1.20;99.90;;;;;;5075157;28;20319;-90
2023/03/05 03:51:57;;;;;;;;;;;1.20;99.90;;;;;;5047673;28;19991;-89
2023/03/05 03:54:31;;;;;;;;;;;1.10;99.90;;;;;;5061921;28;19929;-89
2023/03/05 03:56:56;;;;;;;;;;;1.10;99.90;;;;;;5041973;28;19929;-89
2023/03/05 03:59:25;;;;;;;;;;;1.10;99.90;;;;;;5038580;28;20430;-90
2023/03/05 04:01:55;;;;;;;;;;;1.10;99.90;;;;;;5071877;28;19932;-88
2023/03/05 04:04:25;;;;;;;;;;;4.40;99.90;;;;;;5055284;28;19971;-89
2023/03/05 04:07:00;;;;;;;;;;;1.10;99.90;;;;;;5031200;28;19932;-89
2023/03/05 04:09:26;;;;;;;;;;;1.20;99.90;;;;;;5038308;28;19968;-90
2023/03/05 04:11:52;;;;;;;;;;;1.10;99.90;;;;;;5065698;28;19974;-90
2023/03/05 04:14:20;;;;;;;;;;;1.20;99.90;;;;;;5030434;28;19936;-90
2023/03/05 04:16:49;;;;;;;;;;;1.20;99.90;;;;;;5056411;28;19972;-90
2023/03/05 04:19:17;;;;;;;;;;;4.60;99.90;;;;;;5038562;28;19983;-90
2023/03/05 04:21:56;;;;;;;;;;;1.20;99.90;;;;;;5059493;28;19979;-90
2023/03/05 04:24:30;;;;;;;;;;;1.30;99.90;;;;;;5038529;28;19925;-89
2023/03/05 04:26:58;;;;;;;;;;;2.80;99.90;;;;;;5054201;28;19925;-90
2023/03/05 04:29:33;;;;;;;;;;;;;;;;;;;;;
2023/03/05 04:32:05;;;;;;;;;;;1.20;99.90;;;;;;5054929;28;19929;-90
2023/03/05 04:34:31;;;;;;;;;;;1.20;99.90;;;;;;5034963;28;19925;-90
2023/03/05 04:37:00;;;;;;;;;;;1.20;99.90;;;;;;5034759;28;19925;-90
2023/03/05 04:39:26;;;;;;;;;;;2.20;99.90;;;;;;5037998;28;20125;-90
2023/03/05 04:41:52;;;;;;;;;;;-1.90;99.90;;;;;;5049467;28;20087;-89
2023/03/05 04:44:24;;;;;;;;;;;1.90;99.90;;;;;;5036844;28;19929;-90
2023/03/05 04:46:50;;;;;;;;;;;1.10;99.90;;;;;;5066384;28;19979;-89
2023/03/05 04:49:23;;;;;;;;;;;-0.40;99.90;;;;;;5060152;28;20327;-88
2023/03/05 04:51:51;;;;;;;;;;;1.10;99.90;;;;;;5088420;28;19928;-90
2023/03/05 04:54:17;;;;;;;;;;;1.10;99.90;;;;;;5030065;28;20009;-90
2023/03/05 04:56:43;;;;;;;;;;;1.10;99.90;;;;;;5034200;28;19929;-90
2023/03/05 04:59:13;;;;;;;;;;;2.50;99.90;;;;;;5032555;28;19933;-90
2023/03/05 05:01:42;;;;;;;;;;;1.10;99.90;;;;;;5051397;28;19932;-90
2023/03/05 05:04:10;;;;;;;;;;;1.00;99.90;;;;;;5037752;28;19924;-89
2023/03/05 05:06:43;;;;;;;;;;;1.00;99.90;;;;;;5037021;28;20381;-90
2023/03/05 05:09:12;;;;;;;;;;;1.70;99.90;;;;;;5037272;28;19932;-89
2023/03/05 05:11:45;;;;;;;;;;;1.00;99.90;;;;;;5054008;28;19925;-89
2023/03/05 05:14:21;;;;;;;;;;;1.00;99.90;;;;;;5037141;28;19932;-90
2023/03/05 05:16:57;;;;;;;;;;;2.10;99.90;;;;;;5070207;28;19925;-91
2023/03/05 05:19:28;;;;;;;;;;;1.30;99.90;;;;;;5055247;28;19996;-89
2023/03/05 05:22:15;;;;;;;;;;;1.10;99.90;;;;;;5033701;28;19925;-89
2023/03/05 05:24:40;;;;;;;;;;;3.60;99.90;;;;;;5084147;28;19952;-91
2023/03/05 05:27:15;;;;;;;;;;;;;;;;;;;;;
2023/03/05 05:29:44;;;;;;;;;;;1.10;99.90;;;;;;5051233;28;19940;-91
2023/03/05 05:32:32;;;;;;;;;;;-1.00;99.90;;;;;;5082881;28;20040;-89
2023/03/05 05:34:58;;;;;;;;;;;1.20;99.90;;;;;;5058418;28;20022;-90
2023/03/05 05:37:29;;;;;;;;;;;1.20;99.90;;;;;;5087044;28;20423;-90
2023/03/05 05:39:57;;;;;;;;;;;0.50;99.90;;;;;;5069412;28;20026;-90
2023/03/05 05:42:28;;;;;;;;;;;2.10;99.90;;;;;;5069432;28;19925;-89
2023/03/05 05:44:56;;;;;;;;;;;-0.70;99.90;;;;;;5035763;28;19950;-90
2023/03/05 05:47:34;;;;;;;;;;;;;;;;;;;;;
2023/03/05 05:50:03;;;;;;;;;;;1.20;99.90;;;;;;5045433;28;19947;-89
2023/03/05 05:52:44;;;;;;;;;;;-1.10;99.90;;;;;;5056463;28;20273;-90
2023/03/05 05:55:15;;;;;;;;;;;1.10;99.90;;;;;;5059316;28;19925;-89
2023/03/05 05:57:43;;;;;;;;;;;4.40;99.90;;;;;;5061032;28;20309;-89
2023/03/05 06:00:15;;;;;;;;;;;2.60;99.90;;;;;;5052179;28;19925;-89
2023/03/05 06:02:56;;;;;;;;;;;1.20;99.90;;;;;;5053247;28;19979;-89
2023/03/05 06:05:27;;;;;;;;;;;0.80;99.90;;;;;;5051885;28;20261;-89
2023/03/05 06:07:55;;;;;;;;;;;-1.30;99.90;;;;;;5026721;28;19925;-89
2023/03/05 06:10:24;;;;;;;;;;;0.70;99.90;;;;;;5068878;28;20414;-90
2023/03/05 06:12:52;;;;;;;;;;;0.60;99.90;;;;;;5053083;28;20035;-90
2023/03/05 06:15:28;;;;;;;;;;;0.60;99.90;;;;;;5043420;28;19924;-90
2023/03/05 06:17:56;;;;;;;;;;;2.30;99.90;;;;;;5058297;28;19932;-89
2023/03/05 06:20:25;;;;;;;;;;;0.60;99.90;;;;;;5064872;28;19925;-90
2023/03/05 06:22:56;;;;;;;;;;;0.60;99.90;;;;;;5052578;28;19957;-90
2023/03/05 06:25:24;;;;;;;;;;;4.00;99.90;;;;;;5032496;28;19925;-89
2023/03/05 06:28:00;;;;;;;;;;;;;;;;;;;;;
2023/03/05 06:30:26;;;;;;;;;;;0.60;99.90;;;;;;5051273;28;20376;-89
2023/03/05 06:32:59;;;;;;;;;;;4.20;99.90;;;;;;5052857;28;19931;-89
2023/03/05 06:35:43;;;;;;;;;;;3.70;99.90;;;;;;5055516;28;20019;-90
2023/03/05 06:38:11;;;;;;;;;;;0.50;99.90;;;;;;5021711;28;19925;-91
2023/03/05 06:40:38;;;;;;;;;;;0.50;99.90;;;;;;5051755;28;19935;-89
2023/03/05 06:43:06;;;;;;;;;;;0.60;99.90;;;;;;5035929;28;20369;-89
2023/03/05 06:45:34;;;;;;;;;;;0.60;99.90;;;;;;5068100;28;20335;-90
2023/03/05 06:48:20;;;;;;;;;;;4.20;99.90;;;;;;5017626;28;20234;-89
2023/03/05 06:50:45;;;;;;;;;;;0.60;99.90;;;;;;5051467;28;19925;-88
2023/03/05 06:53:13;;;;;;;;;;;1.00;99.90;;;;;;5036301;28;19924;-90
2023/03/05 06:55:42;;;;;;;;;;;0.60;99.90;;;;;;5065178;28;19980;-89
2023/03/05 06:58:15;;;;;;;;;;;0.70;99.90;;;;;;5043927;28;19940;-90
2023/03/05 07:00:51;;;;;;;;;;;1.70;99.90;;;;;;5071304;28;19996;-90
2023/03/05 07:03:19;;;;;;;;;;;0.70;99.90;;;;;;5100373;28;19929;-90
2023/03/05 07:05:56;;;;;;;;;;;3.60;99.90;;;;;;5091288;28;19920;-89
2023/03/05 07:08:31;;;;;;;;;;;;;;;;;;;;;
2023/03/05 07:13:46;;;;;;;;;;;4.00;99.90;;;;;;5076392;28;19983;-90
2023/03/05 07:16:21;;;;;;;;;;;1.30;99.90;;;;;;5055331;28;19916;-89
2023/03/05 07:18:49;;;;;;;;;;;1.10;99.90;;;;;;5029486;28;19974;-89
2023/03/05 07:21:29;;;;;;;;;;;3.30;99.90;;;;;;5039598;28;20021;-90
2023/03/05 07:23:56;;;;;;;;;;;1.20;99.90;;;;;;5079639;28;19925;-90
2023/03/05 07:26:23;;;;;;;;;;;1.50;99.90;;;;;;5049908;28;19971;-89
2023/03/05 07:28:49;;;;;;;;;;;2.50;99.90;;;;;;5035942;28;19925;-89
2023/03/05 07:31:30;;;;;;;;;;;3.80;99.90;;;;;;5044276;28;19932;-90
2023/03/05 07:34:19;;;;;;;;;;;0.10;99.90;;;;;;5053245;28;20004;-90
2023/03/05 07:37:03;;;;;;;;;;;3.20;99.90;;;;;;5077561;28;20331;-89
2023/03/05 07:39:33;;;;;;;;;;;1.80;99.90;;;;;;5034385;28;20336;-89
2023/03/05 07:42:01;;;;;;;;;;;2.40;99.90;;;;;;5018337;28;20328;-89
2023/03/05 07:44:38;;;;;;;;;;;1.90;99.90;;;;;;5034719;28;19925;-90
2023/03/05 07:47:04;;;;;;;;;;;1.80;99.90;;;;;;5075925;28;19991;-90
2023/03/05 07:49:43;;;;;;;;;;;1.90;99.90;;;;;;5039173;28;20311;-90
2023/03/05 07:52:08;;;;;;;;;;;2.50;99.90;;;;;;5026644;28;20265;-90
2023/03/05 07:54:39;;;;;;;;;;;3.10;99.90;;;;;;5079515;28;19932;-89
2023/03/05 07:57:12;;;;;;;;;;;5.30;99.90;;;;;;5050409;28;20000;-88
2023/03/05 08:00:03;;;;;;;;;;;2.90;99.90;;;;;;5074858;28;19925;-89
2023/03/05 08:02:31;;;;;;;;;;;2.40;99.90;;;;;;5068257;28;19925;-89
2023/03/05 08:05:05;;;;;;;;;;;2.70;99.90;;;;;;5065596;28;19971;-89
2023/03/05 08:07:32;;;;;;;;;;;3.10;99.90;;;;;;5066174;28;19925;-89
2023/03/05 08:10:00;;;;;;;;;;;4.10;99.90;;;;;;5034996;28;19925;-90
2023/03/05 08:12:36;;;;;;;;;;;;;;;;;;;;;
2023/03/05 08:15:02;;;;;;;;;;;2.90;99.90;;;;;;5082040;28;19929;-89
2023/03/05 08:17:33;;;;;;;;;;;2.70;99.90;;;;;;5055267;28;19931;-89
2023/03/05 08:20:01;;;;;;;;;;;3.00;99.90;;;;;;5050801;28;19925;-88
2023/03/05 08:22:26;;;;;;;;;;;3.20;99.90;;;;;;5071757;28;19929;-89
2023/03/05 08:25:00;;;;;;;;;;;4.00;99.90;;;;;;5055828;28;19974;-88
2023/03/05 08:27:28;;;;;;;;;;;2.90;99.90;;;;;;5040094;28;19929;-88
2023/03/05 08:29:57;;;;;;;;;;;2.90;99.90;;;;;;5037459;28;19929;-88
2023/03/05 08:32:28;;;;;;;;;;;3.40;99.90;;;;;;5049560;28;19925;-90
2023/03/05 08:35:09;;;;;;;;;;;3.10;99.90;;;;;;5054488;28;20391;-89
2023/03/05 08:37:37;;;;;;;;;;;3.90;99.90;;;;;;5042791;28;19932;-89
2023/03/05 08:40:05;;;;;;;;;;;1.10;99.90;;;;;;5074826;28;19924;-88
2023/03/05 08:42:33;;;;;;;;;;;1.50;99.90;;;;;;5070558;28;19925;-88
2023/03/05 08:45:02;;;;;;;;;;;7.10;99.90;;;;;;5053820;28;19928;-89
2023/03/05 08:47:45;;;;;;;;;;;3.60;99.90;;;;;;5081603;28;19925;-88
2023/03/05 08:50:16;;;;;;;;;;;3.50;99.90;;;;;;5065367;28;19979;-89
2023/03/05 08:52:47;;;;;;;;;;;2.00;99.90;;;;;;5081152;28;19925;-89
2023/03/05 08:55:20;;;;;;;;;;;5.60;99.90;;;;;;5087950;28;19932;-88
2023/03/05 08:58:06;;;;;;;;;;;4.00;99.90;;;;;;5043833;28;19980;-90
2023/03/05 09:03:31;;;;;;;;;;;4.60;99.90;;;;;;5088029;28;19937;-90
2023/03/05 09:06:00;;;;;;;;;;;4.30;99.90;;;;;;5062295;28;20269;-89
2023/03/05 09:08:54;;;;;;;;;;;5.40;99.90;;;;;;5054411;28;20384;-89
2023/03/05 09:11:28;;;;;;;;;;;3.60;99.90;;;;;;5069031;28;19925;-89
2023/03/05 09:13:54;;;;;;;;;;;4.60;99.90;;;;;;5057407;28;19924;-90
2023/03/05 09:16:31;;;;;;;;;;;6.10;99.90;;;;;;5049517;28;19924;-89
2023/03/05 09:19:05;;;;;;;;;;;5.10;99.90;;;;;;5054206;28;20110;-90
2023/03/05 09:21:38;;;;;;;;;;;4.70;99.90;;;;;;5029616;28;19976;-90
2023/03/05 09:24:04;;;;;;;;;;;5.30;99.90;;;;;;5028616;28;19924;-92
2023/03/05 09:26:35;;;;;;;;;;;2.90;99.90;;;;;;5072754;28;19924;-89
2023/03/05 09:29:11;;;;;;;;;;;3.60;99.90;;;;;;5067138;28;19933;-89
2023/03/05 09:31:40;;;;;;;;;;;3.00;99.90;;;;;;5046650;28;19929;-90
2023/03/05 09:34:09;;;;;;;;;;;1.60;99.90;;;;;;5084230;28;20027;-89
2023/03/05 09:36:37;;;;;;;;;;;4.00;99.90;;;;;;5080598;28;19932;-89
2023/03/05 09:39:05;;;;;;;;;;;4.80;99.90;;;;;;5070338;28;19928;-89
2023/03/05 09:41:46;;;;;;;;;;;4.10;99.90;;;;;;5026142;28;20003;-89
2023/03/05 09:44:20;;;;;;;;;;;2.30;99.90;;;;;;5037851;28;20008;-89
2023/03/05 09:46:49;;;;;;;;;;;4.70;99.90;;;;;;5068894;28;20388;-89
2023/03/05 09:49:36;;;;;;;;;;;5.90;99.90;;;;;;5051930;28;19925;-89
2023/03/05 09:52:24;;;;;;;;;;;3.80;99.90;;;;;;5059059;28;19933;-90
2023/03/05 09:55:04;;;;;;;;;;;4.30;99.90;;;;;;5053206;28;19932;-89
2023/03/05 09:58:05;;;;;;;;;;;4.00;99.90;;;;;;5037284;28;19948;-89
2023/03/05 10:00:49;;;;;;;;;;;2.40;99.90;;;;;;5028572;28;20417;-90
2023/03/05 10:03:24;;;;;;;;;;;4.30;99.90;;;;;;5044439;28;19975;-89
2023/03/05 10:06:09;;;;;;;;;;;2.80;99.90;;;;;;5045296;28;19978;-90
2023/03/05 10:08:50;;;;;;;;;;;4.40;99.90;;;;;;5036655;28;19924;-91
2023/03/05 10:11:25;;;;;;;;;;;3.60;99.90;;;;;;5071670;28;19936;-90
2023/03/05 10:14:04;;;;;;;;;;;6.20;99.90;;;;;;5036281;28;20422;-90
2023/03/05 10:16:35;;;;;;;;;;;5.20;99.90;;;;;;5045747;28;19931;-91
2023/03/05 10:19:13;;;;;;;;;;;5.20;99.90;;;;;;5032755;28;19929;-89
2023/03/05 10:21:41;;;;;;;;;;;5.50;99.90;;;;;;5054551;28;20017;-90
2023/03/05 10:24:15;;;;;;;;;;;5.30;99.90;;;;;;5061315;28;20353;-90
2023/03/05 10:27:11;;;;;;;;;;;5.40;99.90;;;;;;5034060;28;19933;-89
2023/03/05 10:29:50;;;;;;;;;;;5.80;99.90;;;;;;5084672;28;20000;-89
2023/03/05 10:32:16;;;;;;;;;;;6.00;99.90;;;;;;5069847;28;19994;-90
2023/03/05 10:34:50;;;;;;;;;;;5.90;99.90;;;;;;5041821;28;20358;-90
2023/03/05 10:37:24;;;;;;;;;;;5.90;99.90;;;;;;5028079;28;19931;-89
2023/03/05 10:40:12;;;;;;;;;;;5.80;99.90;;;;;;5046987;28;19925;-89
2023/03/05 10:42:41;;;;;;;;;;;6.20;99.90;;;;;;5068639;28;19925;-90
2023/03/05 10:45:16;;;;;;;;;;;7.10;99.90;;;;;;5067711;28;20011;-89
2023/03/05 10:48:06;;;;;;;;;;;6.40;99.90;;;;;;5069217;28;19925;-90
2023/03/05 10:50:41;;;;;;;;;;;7.00;99.90;;;;;;5051697;28;20241;-88
2023/03/05 10:53:25;;;;;;;;;;;6.80;99.90;;;;;;5064420;28;19931;-89
2023/03/05 10:56:02;;;;;;;;;;;7.40;99.90;;;;;;5033435;28;19925;-89
2023/03/05 10:58:31;;;;;;;;;;;4.60;99.90;;;;;;5082388;28;19994;-89
2023/03/05 11:01:05;;;;;;;;;;;6.70;99.90;;;;;;5066643;28;20028;-90
2023/03/05 11:03:51;;;;;;;;;;;6.70;99.90;;;;;;5068805;28;19925;-90
2023/03/05 11:06:28;;;;;;;;;;;6.70;99.90;;;;;;5072780;28;19925;-89
2023/03/05 11:08:58;;;;;;;;;;;7.10;99.90;;;;;;5080815;28;19995;-90
2023/03/05 11:11:27;;;;;;;;;;;7.10;99.90;;;;;;5088883;28;19913;-89
2023/03/05 11:13:58;;;;;;;;;;;7.00;99.90;;;;;;5057861;28;19945;-90
2023/03/05 11:16:51;;;;;;;;;;;6.80;99.90;;;;;;5072362;28;19939;-90
2023/03/05 11:19:28;;;;;;;;;;;7.60;99.90;;;;;;5073935;28;19972;-89
2023/03/05 11:22:36;;;;;;;;;;;;;;;;;;;;;
2023/03/05 11:25:25;;;;;;;;;;;7.30;99.90;;;;;;5096157;28;19945;-91
2023/03/05 11:28:02;;;;;;;;;;;10.40;99.90;;;;;;5093566;28;19925;-89
2023/03/05 11:30:30;;;;;;;;;;;8.60;99.90;;;;;;5076279;28;19924;-87
2023/03/05 11:33:30;;;;;;;;;;;8.20;99.90;;;;;;5093647;28;19913;-87
2023/03/05 11:36:16;;;;;;;;;;;7.80;99.90;;;;;;5062972;28;19932;-89
2023/03/05 11:38:58;;;;;;;;;;;8.10;99.90;;;;;;5079139;28;19928;-89
2023/03/05 11:41:45;;;;;;;;;;;7.10;99.90;;;;;;5035185;28;19974;-89
2023/03/05 11:44:33;;;;;;;;;;;6.60;99.90;;;;;;5025025;28;19925;-89
2023/03/05 11:47:42;;;;;;;;;;;7.60;99.90;;;;;;5018082;28;19925;-89
2023/03/05 11:50:19;;;;;;;;;;;7.80;99.90;;;;;;4993125;28;19930;-89
2023/03/05 11:52:50;;;;;;;;;;;7.90;99.90;;;;;;5040982;28;19931;-89
2023/03/05 11:55:34;;;;;;;;;;;7.80;99.90;;;;;;5061774;28;19947;-89
2023/03/05 11:58:11;;;;;;;;;;;7.90;99.90;;;;;;5058103;28;19948;-89
2023/03/05 12:00:42;;;;;;;;;;;7.60;99.90;;;;;;5035513;28;19924;-89
2023/03/05 12:06:18;;;;;;;;;;;8.30;99.90;;;;;;5055892;28;19925;-89
2023/03/05 12:08:50;;;;;;;;;;;7.40;99.90;;;;;;5022441;28;19924;-88
2023/03/05 12:11:26;;;;;;;;;;;8.30;99.90;;;;;;5047087;28;19925;-89
2023/03/05 12:14:04;;;;;;;;;;;7.30;99.90;;;;;;5068224;28;19925;-89
2023/03/05 12:16:50;;;;;;;;;;;7.20;99.90;;;;;;5060023;28;19982;-90
2023/03/05 12:19:46;;;;;;;;;;;7.70;99.90;;;;;;5070014;28;19925;-89
2023/03/05 12:22:33;;;;;;;;;;;5.50;99.90;;;;;;5010828;28;20016;-89
2023/03/05 12:25:28;;;;;;;;;;;7.80;99.90;;;;;;5068762;28;19947;-91
2023/03/05 12:28:00;;;;;;;;;;;7.90;99.90;;;;;;5054965;28;19974;-90
2023/03/05 12:30:59;;;;;;;;;;;7.40;99.90;;;;;;5037664;28;19925;-90
2023/03/05 12:33:38;;;;;;;;;;;7.10;99.90;;;;;;5052793;28;19929;-89
2023/03/05 12:36:25;;;;;;;;;;;7.60;99.90;;;;;;5071051;28;19931;-89
2023/03/05 12:39:06;;;;;;;;;;;6.80;99.90;;;;;;5029992;28;20014;-89
2023/03/05 12:41:36;;;;;;;;;;;6.90;99.90;;;;;;5057244;28;19986;-88
2023/03/05 12:44:25;;;;;;;;;;;7.60;99.90;;;;;;5030624;28;19925;-90
2023/03/05 12:47:26;;;;;;;;;;;7.40;99.90;;;;;;5049453;28;19925;-91
2023/03/05 12:49:56;;;;;;;;;;;7.40;99.90;;;;;;5028609;28;20011;-90
2023/03/05 12:52:24;;;;;;;;;;;7.70;99.90;;;;;;5071710;28;19925;-90
2023/03/05 12:55:05;;;;;;;;;;;5.40;99.90;;;;;;5083595;28;20351;-96
2023/03/05 12:57:43;;;;;;;;;;;8.40;99.90;;;;;;5074907;28;19936;-89
2023/03/05 13:00:23;;;;;;;;;;;7.70;99.90;;;;;;5048488;28;19932;-89
2023/03/05 13:03:17;;;;;;;;;;;7.60;99.90;;;;;;5038390;28;19925;-90
2023/03/05 13:06:03;;;;;;;;;;;7.60;99.90;;;;;;5053849;28;19994;-89
2023/03/05 13:08:55;;;;;;;;;;;7.60;99.90;;;;;;5076575;28;20007;-89
2023/03/05 13:11:21;;;;;;;;;;;6.60;99.90;;;;;;5048279;28;19924;-90
2023/03/05 13:13:49;;;;;;;;;;;10.10;99.90;;;;;;5067148;28;20369;-89
2023/03/05 13:16:31;;;;;;;;;;;7.60;99.90;;;;;;5029483;28;19925;-89
2023/03/05 13:19:01;;;;;;;;;;;8.10;99.90;;;;;;5037480;28;20271;-89
2023/03/05 13:21:31;;;;;;;;;;;7.60;99.90;;;;;;5053853;28;19968;-89
2023/03/05 13:24:04;;;;;;;;;;;7.10;99.90;;;;;;5037319;28;20398;-89
2023/03/05 13:26:37;;;;;;;;;;;7.70;99.90;;;;;;5078773;28;20403;-89
2023/03/05 13:29:15;;;;;;;;;;;8.20;99.90;;;;;;5071835;28;19948;-90
2023/03/05 13:31:49;;;;;;;;;;;7.60;99.90;;;;;;5031666;28;20264;-89
2023/03/05 13:34:23;;;;;;;;;;;7.60;99.90;;;;;;5036724;28;19935;-90
2023/03/05 13:36:54;;;;;;;;;;;7.70;99.90;;;;;;5041103;28;19929;-89
2023/03/05 13:39:30;;;;;;;;;;;8.00;99.90;;;;;;5057150;28;19931;-89
2023/03/05 13:42:14;;;;;;;;;;;8.00;99.90;;;;;;5077647;28;19936;-90
2023/03/05 13:45:01;;;;;;;;;;;7.90;99.90;;;;;;5070549;28;19931;-90
2023/03/05 13:47:38;;;;;;;;;;;7.90;99.90;;;;;;5074616;28;19925;-90
2023/03/05 13:50:16;;;;;;;;;;;7.20;99.90;;;;;;5086992;28;19924;-90
2023/03/05 13:52:55;;;;;;;;;;;7.20;99.90;;;;;;5046517;28;19925;-89
2023/03/05 13:55:23;;;;;;;;;;;7.00;99.90;;;;;;5053914;28;19925;-89
2023/03/05 13:57:54;;;;;;;;;;;6.70;99.90;;;;;;5076312;28;19951;-89
2023/03/05 14:00:37;;;;;;;;;;;6.70;99.90;;;;;;5067736;28;19924;-89
2023/03/05 14:03:41;;;;;;;;;;;6.80;99.90;;;;;;5078692;28;19932;-89
2023/03/05 14:06:19;;;;;;;;;;;6.80;99.90;;;;;;5018429;28;19925;-88
2023/03/05 14:09:20;;;;;;;;;;;7.40;99.90;;;;;;5046881;28;20015;-91
2023/03/05 14:12:33;;;;;;;;;;;;;;;;;;;;;
2023/03/05 14:17:48;;;;;;;;;;;8.50;99.90;;;;;;5045961;28;19937;-90
2023/03/05 14:20:21;;;;;;;;;;;7.20;99.90;;;;;;5074338;28;19925;-90
2023/03/05 14:22:48;;;;;;;;;;;7.20;99.90;;;;;;5086410;28;19948;-89
2023/03/05 14:25:32;;;;;;;;;;;6.90;99.90;;;;;;5086336;28;19932;-89
2023/03/05 14:28:03;;;;;;;;;;;7.20;99.90;;;;;;5069120;28;20031;-89
2023/03/05 14:30:33;;;;;;;;;;;7.30;99.90;;;;;;5074662;28;19931;-89
2023/03/05 14:33:04;;;;;;;;;;;7.30;99.90;;;;;;5070885;28;19925;-89
2023/03/05 14:35:30;;;;;;;;;;;7.60;99.90;;;;;;5063061;28;20015;-89
2023/03/05 14:38:01;;;;;;;;;;;9.40;99.90;;;;;;5076180;28;19925;-89
2023/03/05 14:40:32;;;;;;;;;;;8.30;99.90;;;;;;5039747;28;19925;-89
2023/03/05 14:43:04;;;;;;;;;;;7.40;99.90;;;;;;5035235;28;20005;-89
2023/03/05 14:45:35;;;;;;;;;;;6.90;99.90;;;;;;5042056;28;19986;-89
2023/03/05 14:48:07;;;;;;;;;;;7.00;99.90;;;;;;5085399;28;19925;-89
2023/03/05 14:50:40;;;;;;;;;;;6.80;99.90;;;;;;5035549;28;20327;-89
2023/03/05 14:53:12;;;;;;;;;;;6.60;99.90;;;;;;5066569;28;20051;-89
2023/03/05 14:55:49;;;;;;;;;;;;;;;;;;;;;
2023/03/05 14:58:34;;;;;;;;;;;6.70;99.90;;;;;;5052237;28;19931;-89
2023/03/05 15:01:06;;;;;;;;;;;4.00;99.90;;;;;;5024608;28;20482;-89
2023/03/05 15:03:42;;;;;;;;;;;8.90;99.90;;;;;;5077422;28;20369;-89
2023/03/05 15:06:26;;;;;;;;;;;6.30;99.90;;;;;;5054101;28;19970;-88
2023/03/05 15:08:54;;;;;;;;;;;6.40;99.90;;;;;;5073756;28;19925;-89
2023/03/05 15:11:34;;;;;;;;;;;6.30;99.90;;;;;;5037806;28;19925;-88
2023/03/05 15:14:00;;;;;;;;;;;6.70;99.90;;;;;;5068797;28;19925;-90
2023/03/05 15:19:21;;;;;;;;;;;7.00;99.90;;;;;;5078327;28;19967;-89
2023/03/05 15:22:03;;;;;;;;;;;7.00;99.90;;;;;;5028741;28;19933;-89
2023/03/05 15:24:37;;;;;;;;;;;6.50;99.90;;;;;;5080211;28;19925;-88
2023/03/05 15:27:05;;;;;;;;;;;6.50;99.90;;;;;;5093722;28;19913;-90
2023/03/05 15:29:33;;;;;;;;;;;7.60;99.90;;;;;;5050420;28;20021;-90
2023/03/05 15:32:26;;;;;;;;;;;6.20;99.90;;;;;;5076755;28;19979;-90
2023/03/05 15:34:56;;;;;;;;;;;6.50;99.90;;;;;;5056582;28;19965;-90
2023/03/05 15:37:22;;;;;;;;;;;5.20;99.90;;;;;;5093378;28;19912;-90
2023/03/05 15:39:48;;;;;;;;;;;8.60;99.90;;;;;;5075703;28;19938;-88
2023/03/05 15:42:16;;;;;;;;;;;6.30;99.90;;;;;;5075612;28;19917;-89